sensor_id;sensor_type;location;lat;lon;timestamp;P1;durP1;ratioP1;P2;durP2;ratioP2
18659;SDS011;9459;50.254;19.014;2022-10-31T00:00:46;16.77;;;11.55;;
18659;SDS011;9459;50.254;19.014;2022-10-31T00:03:34;13.90;;;10.40;;
18659;SDS011;9459;50.254;19.014;2022-10-31T00:06:02;19.05;;;13.23;;
18659;SDS011;9459;50.254;19.014;2022-10-31T00:08:32;18.52;;;13.50;;
18659;SDS011;9459;50.254;19.014;2022-10-31T00:11:00;16.55;;;11.63;;
18659;SDS011;9459;50.254;19.014;2022-10-31T00:13:29;14.25;;;10.80;;
18659;SDS011;9459;50.254;19.014;2022-10-31T00:15:57;13.48;;;9.75;;
18659;SDS011;9459;50.254;19.014;2022-10-31T00:18:25;14.15;;;9.43;;
18659;SDS011;9459;50.254;19.014;2022-10-31T00:20:58;14.95;;;10.70;;
18659;SDS011;9459;50.254;19.014;2022-10-31T00:23:26;15.20;;;10.43;;
18659;SDS011;9459;50.254;19.014;2022-10-31T00:26:00;17.17;;;10.85;;
18659;SDS011;9459;50.254;19.014;2022-10-31T00:28:29;14.27;;;10.73;;
18659;SDS011;9459;50.254;19.014;2022-10-31T00:30:59;16.95;;;12.07;;
18659;SDS011;9459;50.254;19.014;2022-10-31T00:33:27;16.20;;;11.15;;
18659;SDS011;9459;50.254;19.014;2022-10-31T00:35:56;13.68;;;9.70;;
18659;SDS011;9459;50.254;19.014;2022-10-31T00:38:24;16.40;;;10.27;;
18659;SDS011;9459;50.254;19.014;2022-10-31T00:40:53;12.25;;;9.32;;
18659;SDS011;9459;50.254;19.014;2022-10-31T00:43:22;11.57;;;8.45;;
18659;SDS011;9459;50.254;19.014;2022-10-31T00:45:51;10.70;;;8.13;;
18659;SDS011;9459;50.254;19.014;2022-10-31T00:48:19;10.40;;;7.30;;
18659;SDS011;9459;50.254;19.014;2022-10-31T00:50:47;10.18;;;7.88;;
18659;SDS011;9459;50.254;19.014;2022-10-31T00:53:15;11.88;;;8.35;;
18659;SDS011;9459;50.254;19.014;2022-10-31T00:55:43;16.23;;;10.38;;
18659;SDS011;9459;50.254;19.014;2022-10-31T00:58:11;13.10;;;9.77;;
18659;SDS011;9459;50.254;19.014;2022-10-31T01:00:41;19.83;;;12.57;;
18659;SDS011;9459;50.254;19.014;2022-10-31T01:03:15;18.50;;;12.15;;
18659;SDS011;9459;50.254;19.014;2022-10-31T01:05:43;15.45;;;10.25;;
18659;SDS011;9459;50.254;19.014;2022-10-31T01:08:11;10.80;;;8.57;;
18659;SDS011;9459;50.254;19.014;2022-10-31T01:10:39;10.75;;;8.38;;
18659;SDS011;9459;50.254;19.014;2022-10-31T01:13:07;10.60;;;7.65;;
18659;SDS011;9459;50.254;19.014;2022-10-31T01:15:36;9.80;;;7.40;;
18659;SDS011;9459;50.254;19.014;2022-10-31T01:18:05;12.77;;;9.43;;
18659;SDS011;9459;50.254;19.014;2022-10-31T01:20:33;12.95;;;10.13;;
18659;SDS011;9459;50.254;19.014;2022-10-31T01:23:01;10.95;;;9.13;;
18659;SDS011;9459;50.254;19.014;2022-10-31T01:25:30;12.98;;;9.30;;
18659;SDS011;9459;50.254;19.014;2022-10-31T01:27:58;13.98;;;10.50;;
18659;SDS011;9459;50.254;19.014;2022-10-31T01:30:27;16.85;;;11.00;;
18659;SDS011;9459;50.254;19.014;2022-10-31T01:32:55;15.10;;;11.52;;
18659;SDS011;9459;50.254;19.014;2022-10-31T01:35:26;13.77;;;10.40;;
18659;SDS011;9459;50.254;19.014;2022-10-31T01:37:56;12.35;;;10.02;;
18659;SDS011;9459;50.254;19.014;2022-10-31T01:40:24;11.68;;;9.40;;
18659;SDS011;9459;50.254;19.014;2022-10-31T01:42:56;14.00;;;9.77;;
18659;SDS011;9459;50.254;19.014;2022-10-31T01:45:25;13.60;;;10.45;;
18659;SDS011;9459;50.254;19.014;2022-10-31T01:47:54;12.05;;;9.15;;
18659;SDS011;9459;50.254;19.014;2022-10-31T01:50:25;15.38;;;10.23;;
18659;SDS011;9459;50.254;19.014;2022-10-31T01:52:56;11.45;;;9.20;;
18659;SDS011;9459;50.254;19.014;2022-10-31T01:55:26;12.35;;;9.45;;
18659;SDS011;9459;50.254;19.014;2022-10-31T01:57:57;11.27;;;8.30;;
18659;SDS011;9459;50.254;19.014;2022-10-31T02:00:28;11.32;;;9.15;;
18659;SDS011;9459;50.254;19.014;2022-10-31T02:02:56;12.63;;;8.98;;
18659;SDS011;9459;50.254;19.014;2022-10-31T02:05:28;14.67;;;11.07;;
18659;SDS011;9459;50.254;19.014;2022-10-31T02:07:58;17.77;;;13.65;;
18659;SDS011;9459;50.254;19.014;2022-10-31T02:12:57;21.65;;;13.35;;
18659;SDS011;9459;50.254;19.014;2022-10-31T02:15:27;18.83;;;12.77;;
18659;SDS011;9459;50.254;19.014;2022-10-31T02:17:56;16.38;;;11.70;;
18659;SDS011;9459;50.254;19.014;2022-10-31T02:20:27;14.23;;;11.30;;
18659;SDS011;9459;50.254;19.014;2022-10-31T02:23:14;14.18;;;10.93;;
18659;SDS011;9459;50.254;19.014;2022-10-31T02:26:24;14.40;;;10.23;;
18659;SDS011;9459;50.254;19.014;2022-10-31T02:29:20;14.77;;;10.40;;
18659;SDS011;9459;50.254;19.014;2022-10-31T02:32:04;14.13;;;10.15;;
18659;SDS011;9459;50.254;19.014;2022-10-31T02:34:37;13.85;;;10.75;;
18659;SDS011;9459;50.254;19.014;2022-10-31T02:37:11;11.77;;;9.30;;
18659;SDS011;9459;50.254;19.014;2022-10-31T02:39:42;11.98;;;9.13;;
18659;SDS011;9459;50.254;19.014;2022-10-31T02:42:17;12.20;;;9.95;;
18659;SDS011;9459;50.254;19.014;2022-10-31T02:44:51;14.63;;;10.75;;
18659;SDS011;9459;50.254;19.014;2022-10-31T02:47:26;13.48;;;9.50;;
18659;SDS011;9459;50.254;19.014;2022-10-31T02:49:56;15.68;;;11.57;;
18659;SDS011;9459;50.254;19.014;2022-10-31T02:52:27;13.05;;;10.43;;
18659;SDS011;9459;50.254;19.014;2022-10-31T02:54:56;12.63;;;9.68;;
18659;SDS011;9459;50.254;19.014;2022-10-31T02:57:25;13.23;;;9.02;;
18659;SDS011;9459;50.254;19.014;2022-10-31T02:59:57;11.32;;;8.38;;
18659;SDS011;9459;50.254;19.014;2022-10-31T03:02:36;10.05;;;7.85;;
18659;SDS011;9459;50.254;19.014;2022-10-31T03:05:12;10.38;;;8.10;;
18659;SDS011;9459;50.254;19.014;2022-10-31T03:07:48;12.02;;;8.85;;
18659;SDS011;9459;50.254;19.014;2022-10-31T03:10:23;11.13;;;8.80;;
18659;SDS011;9459;50.254;19.014;2022-10-31T03:12:56;12.63;;;9.50;;
18659;SDS011;9459;50.254;19.014;2022-10-31T03:15:28;13.95;;;10.25;;
18659;SDS011;9459;50.254;19.014;2022-10-31T03:18:00;21.52;;;14.88;;
18659;SDS011;9459;50.254;19.014;2022-10-31T03:20:33;18.00;;;12.98;;
18659;SDS011;9459;50.254;19.014;2022-10-31T03:23:04;13.25;;;10.70;;
18659;SDS011;9459;50.254;19.014;2022-10-31T03:25:34;11.32;;;9.02;;
18659;SDS011;9459;50.254;19.014;2022-10-31T03:28:03;11.95;;;9.48;;
18659;SDS011;9459;50.254;19.014;2022-10-31T03:30:33;13.25;;;9.35;;
18659;SDS011;9459;50.254;19.014;2022-10-31T03:33:06;10.15;;;8.88;;
18659;SDS011;9459;50.254;19.014;2022-10-31T03:35:36;9.25;;;8.25;;
18659;SDS011;9459;50.254;19.014;2022-10-31T03:38:07;12.30;;;8.93;;
18659;SDS011;9459;50.254;19.014;2022-10-31T03:40:36;12.02;;;9.93;;
18659;SDS011;9459;50.254;19.014;2022-10-31T03:43:05;15.25;;;10.55;;
18659;SDS011;9459;50.254;19.014;2022-10-31T03:45:39;12.07;;;10.05;;
18659;SDS011;9459;50.254;19.014;2022-10-31T03:48:11;13.38;;;10.18;;
18659;SDS011;9459;50.254;19.014;2022-10-31T03:50:41;12.25;;;10.25;;
18659;SDS011;9459;50.254;19.014;2022-10-31T03:53:14;13.13;;;10.60;;
18659;SDS011;9459;50.254;19.014;2022-10-31T03:55:47;15.00;;;10.75;;
18659;SDS011;9459;50.254;19.014;2022-10-31T03:58:18;14.35;;;10.95;;
18659;SDS011;9459;50.254;19.014;2022-10-31T04:00:50;14.82;;;11.10;;
18659;SDS011;9459;50.254;19.014;2022-10-31T04:03:22;13.90;;;10.05;;
18659;SDS011;9459;50.254;19.014;2022-10-31T04:05:52;14.63;;;11.07;;
18659;SDS011;9459;50.254;19.014;2022-10-31T04:08:23;16.50;;;11.50;;
18659;SDS011;9459;50.254;19.014;2022-10-31T04:10:54;15.80;;;11.88;;
18659;SDS011;9459;50.254;19.014;2022-10-31T04:13:26;14.65;;;11.35;;
18659;SDS011;9459;50.254;19.014;2022-10-31T04:18:25;20.88;;;13.77;;
18659;SDS011;9459;50.254;19.014;2022-10-31T04:20:59;17.55;;;14.00;;
18659;SDS011;9459;50.254;19.014;2022-10-31T04:23:28;16.75;;;12.45;;
18659;SDS011;9459;50.254;19.014;2022-10-31T04:25:56;13.25;;;10.80;;
18659;SDS011;9459;50.254;19.014;2022-10-31T04:28:24;13.15;;;10.20;;
18659;SDS011;9459;50.254;19.014;2022-10-31T04:30:53;14.13;;;9.98;;
18659;SDS011;9459;50.254;19.014;2022-10-31T04:33:21;13.38;;;10.70;;
18659;SDS011;9459;50.254;19.014;2022-10-31T04:35:51;14.30;;;10.27;;
18659;SDS011;9459;50.254;19.014;2022-10-31T04:38:20;11.82;;;9.57;;
18659;SDS011;9459;50.254;19.014;2022-10-31T04:40:48;14.30;;;10.30;;
18659;SDS011;9459;50.254;19.014;2022-10-31T04:43:16;13.90;;;10.25;;
18659;SDS011;9459;50.254;19.014;2022-10-31T04:45:45;14.60;;;11.02;;
18659;SDS011;9459;50.254;19.014;2022-10-31T04:48:14;15.27;;;11.35;;
18659;SDS011;9459;50.254;19.014;2022-10-31T04:50:42;21.10;;;13.35;;
18659;SDS011;9459;50.254;19.014;2022-10-31T04:53:11;18.48;;;13.73;;
18659;SDS011;9459;50.254;19.014;2022-10-31T04:55:40;19.35;;;13.88;;
18659;SDS011;9459;50.254;19.014;2022-10-31T04:58:08;17.45;;;13.15;;
18659;SDS011;9459;50.254;19.014;2022-10-31T05:00:36;18.30;;;14.07;;
18659;SDS011;9459;50.254;19.014;2022-10-31T05:03:05;16.02;;;12.07;;
18659;SDS011;9459;50.254;19.014;2022-10-31T05:05:33;14.77;;;10.55;;
18659;SDS011;9459;50.254;19.014;2022-10-31T05:08:01;15.40;;;10.77;;
18659;SDS011;9459;50.254;19.014;2022-10-31T05:10:31;14.40;;;11.27;;
18659;SDS011;9459;50.254;19.014;2022-10-31T05:13:00;13.02;;;9.75;;
18659;SDS011;9459;50.254;19.014;2022-10-31T05:15:30;11.27;;;9.57;;
18659;SDS011;9459;50.254;19.014;2022-10-31T05:17:59;14.88;;;10.48;;
18659;SDS011;9459;50.254;19.014;2022-10-31T05:20:28;16.10;;;12.23;;
18659;SDS011;9459;50.254;19.014;2022-10-31T05:22:58;16.47;;;12.43;;
18659;SDS011;9459;50.254;19.014;2022-10-31T05:25:27;14.75;;;11.90;;
18659;SDS011;9459;50.254;19.014;2022-10-31T05:27:57;15.73;;;12.07;;
18659;SDS011;9459;50.254;19.014;2022-10-31T05:30:27;15.57;;;11.32;;
18659;SDS011;9459;50.254;19.014;2022-10-31T05:32:56;16.38;;;12.07;;
18659;SDS011;9459;50.254;19.014;2022-10-31T05:35:26;15.38;;;12.18;;
18659;SDS011;9459;50.254;19.014;2022-10-31T05:37:56;15.35;;;12.60;;
18659;SDS011;9459;50.254;19.014;2022-10-31T05:40:25;19.73;;;13.52;;
18659;SDS011;9459;50.254;19.014;2022-10-31T05:42:55;18.23;;;14.15;;
18659;SDS011;9459;50.254;19.014;2022-10-31T05:45:27;21.17;;;14.40;;
18659;SDS011;9459;50.254;19.014;2022-10-31T05:47:56;19.50;;;14.27;;
18659;SDS011;9459;50.254;19.014;2022-10-31T05:50:26;23.00;;;14.37;;
18659;SDS011;9459;50.254;19.014;2022-10-31T05:52:57;22.90;;;14.43;;
18659;SDS011;9459;50.254;19.014;2022-10-31T05:55:27;19.92;;;14.57;;
18659;SDS011;9459;50.254;19.014;2022-10-31T05:57:55;18.08;;;12.95;;
18659;SDS011;9459;50.254;19.014;2022-10-31T06:00:25;24.80;;;15.98;;
18659;SDS011;9459;50.254;19.014;2022-10-31T06:02:58;23.35;;;16.30;;
18659;SDS011;9459;50.254;19.014;2022-10-31T06:05:27;16.75;;;13.82;;
18659;SDS011;9459;50.254;19.014;2022-10-31T06:07:56;21.88;;;14.95;;
18659;SDS011;9459;50.254;19.014;2022-10-31T06:10:25;20.45;;;16.13;;
18659;SDS011;9459;50.254;19.014;2022-10-31T06:12:54;23.23;;;17.58;;
18659;SDS011;9459;50.254;19.014;2022-10-31T06:15:22;23.08;;;17.65;;
18659;SDS011;9459;50.254;19.014;2022-10-31T06:18:02;24.15;;;17.77;;
18659;SDS011;9459;50.254;19.014;2022-10-31T06:20:31;27.52;;;19.05;;
18659;SDS011;9459;50.254;19.014;2022-10-31T06:23:00;32.08;;;21.92;;
18659;SDS011;9459;50.254;19.014;2022-10-31T06:25:29;27.45;;;19.75;;
18659;SDS011;9459;50.254;19.014;2022-10-31T06:27:57;25.00;;;18.65;;
18659;SDS011;9459;50.254;19.014;2022-10-31T06:30:26;26.67;;;17.92;;
18659;SDS011;9459;50.254;19.014;2022-10-31T06:32:54;23.85;;;15.90;;
18659;SDS011;9459;50.254;19.014;2022-10-31T06:35:24;22.95;;;16.17;;
18659;SDS011;9459;50.254;19.014;2022-10-31T06:37:52;19.95;;;15.88;;
18659;SDS011;9459;50.254;19.014;2022-10-31T06:40:21;23.02;;;16.08;;
18659;SDS011;9459;50.254;19.014;2022-10-31T06:42:55;21.23;;;16.10;;
18659;SDS011;9459;50.254;19.014;2022-10-31T06:45:26;24.30;;;17.27;;
18659;SDS011;9459;50.254;19.014;2022-10-31T06:47:55;21.60;;;16.20;;
18659;SDS011;9459;50.254;19.014;2022-10-31T06:50:43;22.08;;;15.35;;
18659;SDS011;9459;50.254;19.014;2022-10-31T06:53:12;20.90;;;15.10;;
18659;SDS011;9459;50.254;19.014;2022-10-31T06:55:41;22.67;;;15.88;;
18659;SDS011;9459;50.254;19.014;2022-10-31T06:58:10;24.10;;;16.17;;
18659;SDS011;9459;50.254;19.014;2022-10-31T07:00:38;24.98;;;17.50;;
18659;SDS011;9459;50.254;19.014;2022-10-31T07:03:09;27.35;;;20.15;;
18659;SDS011;9459;50.254;19.014;2022-10-31T07:05:39;33.42;;;21.83;;
18659;SDS011;9459;50.254;19.014;2022-10-31T07:08:11;27.05;;;18.13;;
18659;SDS011;9459;50.254;19.014;2022-10-31T07:10:41;21.25;;;15.25;;
18659;SDS011;9459;50.254;19.014;2022-10-31T07:13:10;20.92;;;16.70;;
18659;SDS011;9459;50.254;19.014;2022-10-31T07:15:40;21.27;;;14.70;;
18659;SDS011;9459;50.254;19.014;2022-10-31T07:18:10;21.02;;;14.75;;
18659;SDS011;9459;50.254;19.014;2022-10-31T07:20:39;22.05;;;16.40;;
18659;SDS011;9459;50.254;19.014;2022-10-31T07:23:09;21.17;;;15.23;;
18659;SDS011;9459;50.254;19.014;2022-10-31T07:25:38;23.08;;;15.82;;
18659;SDS011;9459;50.254;19.014;2022-10-31T07:28:06;19.08;;;13.73;;
18659;SDS011;9459;50.254;19.014;2022-10-31T07:30:35;17.67;;;13.50;;
18659;SDS011;9459;50.254;19.014;2022-10-31T07:33:04;18.88;;;12.60;;
18659;SDS011;9459;50.254;19.014;2022-10-31T07:35:32;13.52;;;11.23;;
18659;SDS011;9459;50.254;19.014;2022-10-31T07:38:09;16.40;;;12.40;;
18659;SDS011;9459;50.254;19.014;2022-10-31T07:40:38;17.52;;;12.93;;
18659;SDS011;9459;50.254;19.014;2022-10-31T07:43:07;20.48;;;14.30;;
18659;SDS011;9459;50.254;19.014;2022-10-31T07:45:40;26.42;;;16.33;;
18659;SDS011;9459;50.254;19.014;2022-10-31T07:48:08;20.75;;;15.77;;
18659;SDS011;9459;50.254;19.014;2022-10-31T07:50:37;23.27;;;16.55;;
18659;SDS011;9459;50.254;19.014;2022-10-31T07:53:06;19.50;;;15.80;;
18659;SDS011;9459;50.254;19.014;2022-10-31T07:55:37;18.57;;;13.70;;
18659;SDS011;9459;50.254;19.014;2022-10-31T07:58:06;17.30;;;13.70;;
18659;SDS011;9459;50.254;19.014;2022-10-31T08:00:35;19.85;;;15.10;;
18659;SDS011;9459;50.254;19.014;2022-10-31T08:03:05;17.67;;;13.38;;
18659;SDS011;9459;50.254;19.014;2022-10-31T08:05:34;16.92;;;12.50;;
18659;SDS011;9459;50.254;19.014;2022-10-31T08:08:03;15.02;;;10.32;;
18659;SDS011;9459;50.254;19.014;2022-10-31T08:10:32;13.13;;;9.57;;
18659;SDS011;9459;50.254;19.014;2022-10-31T08:13:03;11.55;;;7.72;;
18659;SDS011;9459;50.254;19.014;2022-10-31T08:15:32;14.10;;;7.70;;
18659;SDS011;9459;50.254;19.014;2022-10-31T08:18:04;9.68;;;6.88;;
18659;SDS011;9459;50.254;19.014;2022-10-31T08:20:32;9.60;;;6.47;;
18659;SDS011;9459;50.254;19.014;2022-10-31T08:23:01;11.57;;;6.38;;
18659;SDS011;9459;50.254;19.014;2022-10-31T08:25:30;13.52;;;6.65;;
18659;SDS011;9459;50.254;19.014;2022-10-31T08:28:06;11.25;;;6.55;;
18659;SDS011;9459;50.254;19.014;2022-10-31T08:30:36;13.30;;;6.28;;
18659;SDS011;9459;50.254;19.014;2022-10-31T08:33:06;9.60;;;6.32;;
18659;SDS011;9459;50.254;19.014;2022-10-31T08:35:37;9.27;;;5.88;;
18659;SDS011;9459;50.254;19.014;2022-10-31T08:38:05;11.23;;;6.63;;
18659;SDS011;9459;50.254;19.014;2022-10-31T08:40:35;9.10;;;6.47;;
18659;SDS011;9459;50.254;19.014;2022-10-31T08:43:04;8.68;;;6.35;;
18659;SDS011;9459;50.254;19.014;2022-10-31T08:45:34;12.13;;;6.05;;
18659;SDS011;9459;50.254;19.014;2022-10-31T08:48:03;8.30;;;6.05;;
18659;SDS011;9459;50.254;19.014;2022-10-31T08:50:34;9.25;;;6.32;;
18659;SDS011;9459;50.254;19.014;2022-10-31T08:53:04;9.23;;;6.80;;
18659;SDS011;9459;50.254;19.014;2022-10-31T08:55:34;11.85;;;6.68;;
18659;SDS011;9459;50.254;19.014;2022-10-31T08:58:04;9.60;;;5.60;;
18659;SDS011;9459;50.254;19.014;2022-10-31T09:00:34;10.45;;;6.32;;
18659;SDS011;9459;50.254;19.014;2022-10-31T09:03:03;8.25;;;6.13;;
18659;SDS011;9459;50.254;19.014;2022-10-31T09:05:32;9.63;;;6.03;;
18659;SDS011;9459;50.254;19.014;2022-10-31T09:08:02;12.20;;;6.07;;
18659;SDS011;9459;50.254;19.014;2022-10-31T09:10:32;7.95;;;6.53;;
18659;SDS011;9459;50.254;19.014;2022-10-31T09:13:02;11.52;;;6.75;;
18659;SDS011;9459;50.254;19.014;2022-10-31T09:15:34;9.63;;;6.40;;
18659;SDS011;9459;50.254;19.014;2022-10-31T09:18:05;10.23;;;6.50;;
18659;SDS011;9459;50.254;19.014;2022-10-31T09:20:33;10.75;;;6.03;;
18659;SDS011;9459;50.254;19.014;2022-10-31T09:23:03;11.68;;;6.68;;
18659;SDS011;9459;50.254;19.014;2022-10-31T09:25:32;11.88;;;6.70;;
18659;SDS011;9459;50.254;19.014;2022-10-31T09:28:02;8.67;;;6.23;;
18659;SDS011;9459;50.254;19.014;2022-10-31T09:30:32;9.15;;;6.47;;
18659;SDS011;9459;50.254;19.014;2022-10-31T09:33:03;9.35;;;6.32;;
18659;SDS011;9459;50.254;19.014;2022-10-31T09:35:32;11.73;;;7.05;;
18659;SDS011;9459;50.254;19.014;2022-10-31T09:38:01;9.48;;;6.25;;
18659;SDS011;9459;50.254;19.014;2022-10-31T09:40:31;9.63;;;6.50;;
18659;SDS011;9459;50.254;19.014;2022-10-31T09:43:03;10.77;;;6.72;;
18659;SDS011;9459;50.254;19.014;2022-10-31T09:45:41;10.40;;;6.55;;
18659;SDS011;9459;50.254;19.014;2022-10-31T09:51:05;11.30;;;7.43;;
18659;SDS011;9459;50.254;19.014;2022-10-31T09:53:37;8.70;;;6.78;;
18659;SDS011;9459;50.254;19.014;2022-10-31T09:56:09;8.50;;;6.50;;
18659;SDS011;9459;50.254;19.014;2022-10-31T09:58:41;8.00;;;6.22;;
18659;SDS011;9459;50.254;19.014;2022-10-31T10:03:59;8.85;;;6.95;;
18659;SDS011;9459;50.254;19.014;2022-10-31T10:06:29;12.13;;;7.32;;
18659;SDS011;9459;50.254;19.014;2022-10-31T10:09:01;11.20;;;6.50;;
18659;SDS011;9459;50.254;19.014;2022-10-31T10:11:36;8.15;;;6.22;;
18659;SDS011;9459;50.254;19.014;2022-10-31T10:14:14;10.48;;;7.07;;
18659;SDS011;9459;50.254;19.014;2022-10-31T10:16:57;9.85;;;6.28;;
18659;SDS011;9459;50.254;19.014;2022-10-31T10:19:40;10.05;;;7.53;;
18659;SDS011;9459;50.254;19.014;2022-10-31T10:22:17;9.75;;;6.70;;
18659;SDS011;9459;50.254;19.014;2022-10-31T10:24:52;9.32;;;6.60;;
18659;SDS011;9459;50.254;19.014;2022-10-31T10:27:30;7.97;;;5.80;;
18659;SDS011;9459;50.254;19.014;2022-10-31T10:30:11;10.60;;;6.70;;
18659;SDS011;9459;50.254;19.014;2022-10-31T10:32:43;13.05;;;6.30;;
18659;SDS011;9459;50.254;19.014;2022-10-31T10:35:20;12.10;;;7.07;;
18659;SDS011;9459;50.254;19.014;2022-10-31T10:37:52;10.98;;;6.70;;
18659;SDS011;9459;50.254;19.014;2022-10-31T10:40:24;9.90;;;6.47;;
18659;SDS011;9459;50.254;19.014;2022-10-31T10:42:55;11.30;;;5.45;;
18659;SDS011;9459;50.254;19.014;2022-10-31T10:48:53;8.90;;;5.63;;
18659;SDS011;9459;50.254;19.014;2022-10-31T10:51:27;11.02;;;5.25;;
18659;SDS011;9459;50.254;19.014;2022-10-31T10:57:29;9.75;;;6.10;;
18659;SDS011;9459;50.254;19.014;2022-10-31T11:00:12;10.27;;;5.93;;
18659;SDS011;9459;50.254;19.014;2022-10-31T11:02:45;10.88;;;5.95;;
18659;SDS011;9459;50.254;19.014;2022-10-31T11:05:18;13.93;;;7.97;;
18659;SDS011;9459;50.254;19.014;2022-10-31T11:07:51;14.05;;;7.78;;
18659;SDS011;9459;50.254;19.014;2022-10-31T11:10:19;11.88;;;5.82;;
18659;SDS011;9459;50.254;19.014;2022-10-31T11:12:58;9.75;;;4.97;;
18659;SDS011;9459;50.254;19.014;2022-10-31T11:15:31;12.27;;;5.70;;
18659;SDS011;9459;50.254;19.014;2022-10-31T11:18:00;12.68;;;5.93;;
18659;SDS011;9459;50.254;19.014;2022-10-31T11:20:32;9.30;;;4.82;;
18659;SDS011;9459;50.254;19.014;2022-10-31T11:23:04;9.73;;;5.65;;
18659;SDS011;9459;50.254;19.014;2022-10-31T11:25:33;9.18;;;5.78;;
18659;SDS011;9459;50.254;19.014;2022-10-31T11:28:02;12.68;;;6.28;;
18659;SDS011;9459;50.254;19.014;2022-10-31T11:30:35;9.77;;;5.95;;
18659;SDS011;9459;50.254;19.014;2022-10-31T11:33:11;11.18;;;5.90;;
18659;SDS011;9459;50.254;19.014;2022-10-31T11:35:45;7.82;;;5.22;;
18659;SDS011;9459;50.254;19.014;2022-10-31T11:38:21;10.05;;;5.82;;
18659;SDS011;9459;50.254;19.014;2022-10-31T11:40:52;14.43;;;6.78;;
18659;SDS011;9459;50.254;19.014;2022-10-31T11:43:22;10.90;;;6.10;;
18659;SDS011;9459;50.254;19.014;2022-10-31T11:45:51;9.07;;;6.32;;
18659;SDS011;9459;50.254;19.014;2022-10-31T11:48:19;9.70;;;5.63;;
18659;SDS011;9459;50.254;19.014;2022-10-31T11:50:51;9.82;;;5.55;;
18659;SDS011;9459;50.254;19.014;2022-10-31T11:53:23;10.13;;;6.05;;
18659;SDS011;9459;50.254;19.014;2022-10-31T11:56:01;12.55;;;7.25;;
18659;SDS011;9459;50.254;19.014;2022-10-31T11:58:33;11.52;;;6.32;;
18659;SDS011;9459;50.254;19.014;2022-10-31T12:01:01;10.75;;;6.53;;
18659;SDS011;9459;50.254;19.014;2022-10-31T12:03:33;12.90;;;6.05;;
18659;SDS011;9459;50.254;19.014;2022-10-31T12:06:09;13.10;;;7.03;;
18659;SDS011;9459;50.254;19.014;2022-10-31T12:08:41;11.80;;;5.90;;
18659;SDS011;9459;50.254;19.014;2022-10-31T12:11:11;12.52;;;6.05;;
18659;SDS011;9459;50.254;19.014;2022-10-31T12:13:50;13.07;;;7.32;;
18659;SDS011;9459;50.254;19.014;2022-10-31T12:16:36;13.63;;;7.35;;
18659;SDS011;9459;50.254;19.014;2022-10-31T12:19:10;11.70;;;6.05;;
18659;SDS011;9459;50.254;19.014;2022-10-31T12:21:50;14.10;;;6.20;;
18659;SDS011;9459;50.254;19.014;2022-10-31T12:24:33;12.38;;;5.70;;
18659;SDS011;9459;50.254;19.014;2022-10-31T12:27:12;10.75;;;6.05;;
18659;SDS011;9459;50.254;19.014;2022-10-31T12:29:52;11.48;;;5.72;;
18659;SDS011;9459;50.254;19.014;2022-10-31T12:32:34;12.13;;;6.05;;
18659;SDS011;9459;50.254;19.014;2022-10-31T12:35:21;11.00;;;6.45;;
18659;SDS011;9459;50.254;19.014;2022-10-31T12:38:01;11.85;;;6.20;;
18659;SDS011;9459;50.254;19.014;2022-10-31T12:45:58;9.95;;;5.55;;
18659;SDS011;9459;50.254;19.014;2022-10-31T12:48:35;14.15;;;6.22;;
18659;SDS011;9459;50.254;19.014;2022-10-31T12:51:14;11.63;;;5.93;;
18659;SDS011;9459;50.254;19.014;2022-10-31T12:53:50;11.18;;;6.72;;
18659;SDS011;9459;50.254;19.014;2022-10-31T12:56:28;13.40;;;7.82;;
18659;SDS011;9459;50.254;19.014;2022-10-31T12:59:04;16.85;;;7.78;;
18659;SDS011;9459;50.254;19.014;2022-10-31T13:01:36;15.43;;;7.22;;
18659;SDS011;9459;50.254;19.014;2022-10-31T13:04:10;14.98;;;6.95;;
18659;SDS011;9459;50.254;19.014;2022-10-31T13:06:42;16.00;;;6.57;;
18659;SDS011;9459;50.254;19.014;2022-10-31T13:09:17;14.30;;;7.25;;
18659;SDS011;9459;50.254;19.014;2022-10-31T13:11:47;14.43;;;8.32;;
18659;SDS011;9459;50.254;19.014;2022-10-31T13:14:21;11.05;;;7.60;;
18659;SDS011;9459;50.254;19.014;2022-10-31T13:16:53;9.23;;;6.00;;
18659;SDS011;9459;50.254;19.014;2022-10-31T13:19:23;12.00;;;6.97;;
18659;SDS011;9459;50.254;19.014;2022-10-31T13:24:28;10.32;;;6.78;;
18659;SDS011;9459;50.254;19.014;2022-10-31T13:27:02;14.27;;;6.72;;
18659;SDS011;9459;50.254;19.014;2022-10-31T13:29:32;15.10;;;7.47;;
18659;SDS011;9459;50.254;19.014;2022-10-31T13:32:03;12.67;;;6.20;;
18659;SDS011;9459;50.254;19.014;2022-10-31T13:34:33;13.73;;;6.45;;
18659;SDS011;9459;50.254;19.014;2022-10-31T13:37:06;11.50;;;6.60;;
18659;SDS011;9459;50.254;19.014;2022-10-31T13:39:44;9.77;;;6.07;;
18659;SDS011;9459;50.254;19.014;2022-10-31T13:42:18;15.27;;;7.75;;
18659;SDS011;9459;50.254;19.014;2022-10-31T13:45:06;13.40;;;7.07;;
18659;SDS011;9459;50.254;19.014;2022-10-31T13:47:40;11.57;;;6.63;;
18659;SDS011;9459;50.254;19.014;2022-10-31T13:50:18;9.70;;;6.13;;
18659;SDS011;9459;50.254;19.014;2022-10-31T13:52:48;13.00;;;7.32;;
18659;SDS011;9459;50.254;19.014;2022-10-31T13:55:36;10.80;;;6.85;;
18659;SDS011;9459;50.254;19.014;2022-10-31T13:58:19;10.60;;;6.67;;
18659;SDS011;9459;50.254;19.014;2022-10-31T14:00:59;13.50;;;7.50;;
18659;SDS011;9459;50.254;19.014;2022-10-31T14:03:36;12.98;;;7.25;;
18659;SDS011;9459;50.254;19.014;2022-10-31T14:06:34;11.48;;;7.40;;
18659;SDS011;9459;50.254;19.014;2022-10-31T14:09:03;13.43;;;7.43;;
18659;SDS011;9459;50.254;19.014;2022-10-31T14:11:33;15.07;;;7.32;;
18659;SDS011;9459;50.254;19.014;2022-10-31T14:14:03;13.15;;;7.95;;
18659;SDS011;9459;50.254;19.014;2022-10-31T14:16:38;13.77;;;7.80;;
18659;SDS011;9459;50.254;19.014;2022-10-31T14:19:13;9.18;;;6.60;;
18659;SDS011;9459;50.254;19.014;2022-10-31T14:21:43;11.43;;;7.13;;
18659;SDS011;9459;50.254;19.014;2022-10-31T14:24:13;11.38;;;6.65;;
18659;SDS011;9459;50.254;19.014;2022-10-31T14:26:52;13.75;;;7.15;;
18659;SDS011;9459;50.254;19.014;2022-10-31T14:29:23;10.65;;;7.22;;
18659;SDS011;9459;50.254;19.014;2022-10-31T14:34:23;11.57;;;7.25;;
18659;SDS011;9459;50.254;19.014;2022-10-31T14:37:01;10.35;;;6.82;;
18659;SDS011;9459;50.254;19.014;2022-10-31T14:39:39;12.75;;;7.90;;
18659;SDS011;9459;50.254;19.014;2022-10-31T14:42:19;13.15;;;7.40;;
18659;SDS011;9459;50.254;19.014;2022-10-31T14:47:31;16.17;;;7.95;;
18659;SDS011;9459;50.254;19.014;2022-10-31T14:50:09;15.60;;;8.32;;
18659;SDS011;9459;50.254;19.014;2022-10-31T14:52:49;17.23;;;8.88;;
18659;SDS011;9459;50.254;19.014;2022-10-31T14:55:18;16.23;;;8.80;;
18659;SDS011;9459;50.254;19.014;2022-10-31T14:57:49;15.23;;;9.15;;
18659;SDS011;9459;50.254;19.014;2022-10-31T15:00:20;15.73;;;9.15;;
18659;SDS011;9459;50.254;19.014;2022-10-31T15:02:58;18.42;;;9.13;;
18659;SDS011;9459;50.254;19.014;2022-10-31T15:05:40;14.98;;;7.28;;
18659;SDS011;9459;50.254;19.014;2022-10-31T15:08:12;14.25;;;8.40;;
18659;SDS011;9459;50.254;19.014;2022-10-31T15:10:44;14.15;;;8.05;;
18659;SDS011;9459;50.254;19.014;2022-10-31T15:13:17;16.98;;;10.35;;
18659;SDS011;9459;50.254;19.014;2022-10-31T15:15:46;17.48;;;9.65;;
18659;SDS011;9459;50.254;19.014;2022-10-31T15:18:20;20.08;;;11.05;;
18659;SDS011;9459;50.254;19.014;2022-10-31T15:20:50;14.32;;;8.85;;
18659;SDS011;9459;50.254;19.014;2022-10-31T15:23:21;14.73;;;8.65;;
18659;SDS011;9459;50.254;19.014;2022-10-31T15:25:57;12.10;;;7.53;;
18659;SDS011;9459;50.254;19.014;2022-10-31T15:28:27;15.82;;;7.60;;